메인 페이지
METAR-TAF:

METAR-TAF

공항 :

옐리스타, 러시아

위도: 46-22N, 경도: 044-20E, 고도: 150m

현재 날씨관측

예보는 27분 전, 14:00시(UTC)에 발표되었습니다.
동남동12kt
온도 4°C
습도 100%
기압 1018 hPa
시정: 0650m
약한이슬비, 안개

METAR: URWI 141400Z 12006MPS 0700 0650S R09/1500U -DZ FG VV001 04/04 Q1018 R09/290150 TEMPO 0200 -DZ FG RMK QBB050 OBST OBSC

시각: 18:27 (14:27 UTC)

예보

예보는 3 시간 27분 전, 11:00시(UTC)에 발표되었습니다.
예보 대상 시간: 14일 12시부터 14일 21시까지 (UTC)
6kt, 순간 최대 풍속 17kt
시정: 0300m
고도 200ft 상공 흐림
약한이슬비, 안개
일시적
14일 12시부터 14일 21시까지 (UTC)
동남동14kt, 순간 최대 풍속 23kt
시정: 0800m
고도 300ft 상공 흐림
안개

TAF: URWI 141100Z 1412/1421 10003G09MPS 0300 -DZ FG OVC002 TEMPO 1412/1421 12007G12MPS 0800 FG OVC003

4,000개 이상의 공항 관측 자료 및 예보 (METAR 및 TAF 보고).

지도상에서 검색 가능한 기상관측소가 노란 점과 빨간 점으로 표시되어 있습니다.

기상관측소 명을 보려면 표시 위로 마우스를 이동하세요.

날씨 관측과 예보를 보려면 클릭하세요.

지도 변경 : 확대하려면 엑스 표시가 있는 녹색 버튼, 축소하려면 빼기 표시가 있는 녹색 버튼, 다음 페이지의 지도를 보려면 녹색 화살표를 클릭하세요.


METAR-TAF: